Time;durP1;ratioP1;P1;durP2;ratioP2;P2;SDS_P1;SDS_P2;PMS_P1;PMS_P2;Temp;Humidity;BMP_temperature;BMP_pressure;BME280_temperature;BME280_humidity;BME280_pressure;Samples;Min_cycle;Max_cycle;Signal;HPM_P1;HPM_P2
2023/06/09 00:02:06;;;;;;;9.30;3.90;;;;;;;19.77;57.61;100890.75;5011831;28;20419;-76
2023/06/09 00:04:35;;;;;;;7.72;3.30;;;;;;;19.63;57.91;100880.16;5011895;28;20379;-77
2023/06/09 00:07:03;;;;;;;6.83;3.70;;;;;;;19.57;58.26;100883.75;5009936;28;20848;-77
2023/06/09 00:09:32;;;;;;;8.30;3.90;;;;;;;19.34;59.05;100878.22;5008878;28;20881;-77
2023/06/09 00:11:57;;;;;;;7.32;3.40;;;;;;;19.25;59.46;100888.47;5003736;28;20483;-77
2023/06/09 00:14:23;;;;;;;12.80;3.90;;;;;;;19.43;58.76;100891.16;5007983;28;20396;-78
2023/06/09 00:16:49;;;;;;;6.75;3.55;;;;;;;19.49;58.57;100890.25;5005290;28;20857;-77
2023/06/09 00:19:16;;;;;;;6.50;3.57;;;;;;;19.57;58.21;100888.28;5005131;28;20403;-77
2023/06/09 00:21:49;;;;;;;8.13;3.95;;;;;;;19.67;57.80;100886.72;5006314;28;20423;-78
2023/06/09 00:24:20;;;;;;;6.53;3.35;;;;;;;19.51;58.12;100884.66;5011309;28;20391;-77
2023/06/09 00:26:50;;;;;;;8.52;3.60;;;;;;;19.59;57.96;100888.88;4993306;28;20404;-77
2023/06/09 00:29:17;;;;;;;8.73;3.50;;;;;;;19.56;58.06;100892.88;5010260;28;20389;-77
2023/06/09 00:31:42;;;;;;;9.25;3.65;;;;;;;19.59;58.00;100892.41;5012582;28;20410;-76
2023/06/09 00:34:08;;;;;;;8.60;3.93;;;;;;;19.65;57.75;100885.31;4994011;28;20395;-77
2023/06/09 00:36:34;;;;;;;9.07;3.70;;;;;;;19.57;57.87;100886.44;5012016;28;20783;-77
2023/06/09 00:39:00;;;;;;;7.10;3.67;;;;;;;19.45;58.29;100891.75;5011639;28;20376;-77
2023/06/09 00:41:25;;;;;;;7.73;3.83;;;;;;;19.35;58.61;100887.94;5011879;28;20376;-76
2023/06/09 00:43:51;;;;;;;7.88;3.80;;;;;;;19.22;59.16;100886.22;4994688;28;20384;-76
2023/06/09 00:46:17;;;;;;;9.10;3.70;;;;;;;19.09;59.43;100885.31;4994649;28;20428;-77
2023/06/09 00:48:43;;;;;;;8.80;3.58;;;;;;;18.97;59.82;100879.03;5011909;28;20380;-77
2023/06/09 00:51:08;;;;;;;9.17;3.83;;;;;;;19.02;59.63;100883.75;5011866;28;20387;-77
2023/06/09 00:53:35;;;;;;;8.27;3.90;;;;;;;18.99;59.61;100874.25;5011551;28;20376;-77
2023/06/09 00:56:00;;;;;;;7.88;3.75;;;;;;;18.95;59.89;100878.41;5011796;28;20403;-77
2023/06/09 00:58:26;;;;;;;9.63;4.00;;;;;;;19.06;59.45;100874.19;5012594;28;20769;-77
2023/06/09 01:00:52;;;;;;;7.90;3.80;;;;;;;19.11;58.98;100879.72;4994650;28;20389;-77
2023/06/09 01:03:18;;;;;;;9.00;3.80;;;;;;;19.13;59.03;100879.50;5011628;28;20427;-77
2023/06/09 01:05:44;;;;;;;10.52;3.90;;;;;;;19.09;59.15;100884.50;5011694;28;20463;-77
2023/06/09 01:08:19;;;;;;;7.00;3.63;;;;;;;19.05;59.32;100877.91;5011400;28;20412;-77
2023/06/09 01:10:57;;;;;;;8.43;4.00;;;;;;;19.01;59.56;100874.03;5011591;28;20380;-76
2023/06/09 01:13:54;;;;;;;10.70;3.73;;;;;;;19.02;59.46;100878.38;5011046;28;20460;-77
2023/06/09 01:16:27;;;;;;;8.18;3.70;;;;;;;19.00;59.73;100877.78;4991816;28;20402;-77
2023/06/09 01:18:53;;;;;;;8.55;3.80;;;;;;;19.02;59.51;100868.44;5010578;28;20376;-77
2023/06/09 01:21:41;;;;;;;8.68;3.92;;;;;;;19.29;58.71;100868.16;5011694;28;20380;-77
2023/06/09 01:24:32;;;;;;;8.38;4.38;;;;;;;19.47;58.15;100864.63;5012230;28;20384;-77
2023/06/09 01:27:02;;;;;;;6.38;3.80;;;;;;;19.59;57.63;100857.47;5011117;28;20864;-77
2023/06/09 01:29:30;;;;;;;11.18;4.70;;;;;;;19.63;57.50;100863.22;5011660;28;20726;-77
2023/06/09 01:31:56;;;;;;;9.93;3.95;;;;;;;19.65;57.44;100855.72;5011239;28;20458;-77
2023/06/09 01:34:22;;;;;;;10.07;3.83;;;;;;;19.66;57.35;100860.88;5011366;28;20450;-77
2023/06/09 01:36:51;;;;;;;8.50;3.83;;;;;;;19.70;57.58;100863.94;5010890;28;20383;-77
2023/06/09 01:39:17;;;;;;;9.32;3.92;;;;;;;19.51;58.64;100862.31;5011436;28;20372;-77
2023/06/09 01:41:42;;;;;;;9.05;4.10;;;;;;;19.26;59.40;100869.41;5010127;28;20434;-76
2023/06/09 01:44:08;;;;;;;11.33;4.07;;;;;;;19.04;60.64;100868.22;5001329;28;20401;-77
2023/06/09 01:46:33;;;;;;;8.35;4.00;;;;;;;18.91;61.02;100867.31;5004640;28;20398;-77
2023/06/09 01:49:14;;;;;;;9.47;4.27;;;;;;;18.96;60.89;100873.88;5012592;28;20435;-77
2023/06/09 01:51:43;;;;;;;9.10;3.90;;;;;;;19.07;60.48;100873.16;4993605;28;20458;-77
2023/06/09 01:54:22;;;;;;;9.90;4.00;;;;;;;19.26;59.60;100866.72;5011637;28;20380;-77
2023/06/09 01:56:58;;;;;;;9.02;3.90;;;;;;;19.35;59.37;100866.44;4994003;28;20494;-77
2023/06/09 01:59:34;;;;;;;7.95;4.00;;;;;;;19.24;59.61;100866.13;5010612;28;20427;-77
2023/06/09 02:02:01;;;;;;;9.85;3.95;;;;;;;19.13;60.03;100858.00;4993981;28;20427;-77
2023/06/09 02:04:28;;;;;;;9.38;3.70;;;;;;;19.01;60.58;100874.84;5009979;28;20905;-77
2023/06/09 02:06:56;;;;;;;7.72;4.10;;;;;;;19.00;60.66;100870.53;5011168;28;20384;-77
2023/06/09 02:09:22;;;;;;;6.95;3.75;;;;;;;19.08;60.47;100880.97;5010346;28;20380;-77
2023/06/09 02:11:51;;;;;;;7.77;4.07;;;;;;;19.21;59.96;100873.81;5011039;28;20376;-78
2023/06/09 02:14:17;;;;;;;8.40;4.40;;;;;;;19.29;59.91;100874.34;5011628;28;20380;-77
2023/06/09 02:16:43;;;;;;;10.40;4.03;;;;;;;19.20;60.12;100870.31;5011630;28;20482;-77
2023/06/09 02:19:12;;;;;;;10.40;4.05;;;;;;;19.24;59.85;100874.19;5010992;28;20471;-78
2023/06/09 02:21:38;;;;;;;11.05;4.28;;;;;;;19.29;59.72;100871.66;5013899;28;20416;-78
2023/06/09 02:24:04;;;;;;;10.60;4.13;;;;;;;19.44;59.15;100876.66;5011954;28;20463;-78
2023/06/09 02:26:30;;;;;;;10.95;3.80;;;;;;;19.53;58.90;100876.34;5009700;28;20376;-78
2023/06/09 02:28:56;;;;;;;11.00;4.27;;;;;;;19.57;58.60;100875.69;5011127;28;20407;-77
2023/06/09 02:31:21;;;;;;;7.47;4.20;;;;;;;19.54;58.89;100875.31;5013253;28;20396;-78
2023/06/09 02:33:47;;;;;;;13.37;4.87;;;;;;;19.47;59.08;100876.22;5014212;28;20388;-77
2023/06/09 02:36:12;;;;;;;12.33;4.13;;;;;;;19.43;59.31;100871.53;5014429;28;20408;-77
2023/06/09 02:38:38;;;;;;;9.97;4.30;;;;;;;19.53;59.03;100871.78;5013923;28;20400;-77
2023/06/09 02:41:03;;;;;;;9.13;4.25;;;;;;;19.58;58.87;100873.81;5013994;28;20380;-77
2023/06/09 02:43:29;;;;;;;8.37;3.97;;;;;;;19.63;58.67;100871.28;4996438;28;20408;-77
2023/06/09 02:45:54;;;;;;;11.18;4.95;;;;;;;19.70;58.69;100869.31;5014057;28;20861;-76
2023/06/09 02:48:20;;;;;;;10.37;4.67;;;;;;;19.63;58.93;100877.47;5012272;28;20395;-77
2023/06/09 02:50:45;;;;;;;11.97;5.17;;;;;;;19.45;59.39;100877.50;5013452;28;20403;-77
2023/06/09 02:53:11;;;;;;;10.70;4.75;;;;;;;19.41;59.63;100877.13;5013611;28;20480;-78
2023/06/09 02:55:38;;;;;;;7.77;4.43;;;;;;;19.57;59.07;100881.06;5014425;28;20384;-77
2023/06/09 02:58:03;;;;;;;10.98;5.00;;;;;;;19.74;58.66;100894.75;5015137;28;20404;-77
2023/06/09 03:00:29;;;;;;;11.38;4.70;;;;;;;19.85;58.17;100891.28;5015424;28;20395;-77
2023/06/09 03:02:56;;;;;;;11.70;5.25;;;;;;;19.96;57.93;100894.25;5014278;28;20411;-77
2023/06/09 03:05:24;;;;;;;12.73;5.10;;;;;;;20.10;57.64;100902.97;5014542;28;20411;-77
2023/06/09 03:07:49;;;;;;;9.65;4.57;;;;;;;20.08;57.87;100899.66;5014125;28;20372;-77
2023/06/09 03:10:15;;;;;;;10.03;5.00;;;;;;;20.05;57.91;100900.97;5013001;28;20446;-78
2023/06/09 03:12:40;;;;;;;9.07;4.57;;;;;;;20.11;57.68;100897.34;5014166;28;20434;-77
2023/06/09 03:15:07;;;;;;;9.57;4.40;;;;;;;20.08;57.97;100902.34;5014363;28;20380;-78
2023/06/09 03:17:33;;;;;;;9.88;4.38;;;;;;;19.99;58.09;100901.88;5014156;28;20454;-77
2023/06/09 03:19:58;;;;;;;11.25;4.68;;;;;;;20.14;57.77;100910.34;5014124;28;20388;-78
2023/06/09 03:22:27;;;;;;;10.43;4.63;;;;;;;20.19;57.72;100902.41;5014831;28;20395;-77
2023/06/09 03:24:52;;;;;;;14.03;4.73;;;;;;;20.24;57.60;100902.53;5014833;28;20391;-78
2023/06/09 03:27:18;;;;;;;11.63;4.72;;;;;;;20.22;57.86;100915.41;5012613;28;20396;-77
2023/06/09 03:29:44;;;;;;;14.87;4.90;;;;;;;20.19;58.00;100910.47;5005459;28;20752;-77
2023/06/09 03:32:09;;;;;;;20.17;5.27;;;;;;;20.15;58.17;100909.31;5007671;28;20434;-77
2023/06/09 03:34:35;;;;;;;12.47;5.20;;;;;;;20.25;57.96;100922.19;5004827;28;20392;-78
2023/06/09 03:37:01;;;;;;;9.05;4.72;;;;;;;20.37;57.62;100914.19;5004484;28;20450;-78
2023/06/09 03:39:26;;;;;;;12.93;4.93;;;;;;;20.39;57.53;100906.69;5004698;28;20402;-77
2023/06/09 03:41:56;;;;;;;18.53;4.53;;;;;;;20.38;57.69;100918.50;5002602;28;20403;-76
2023/06/09 03:44:22;;;;;;;11.23;4.78;;;;;;;20.41;57.50;100913.47;5004135;28;20411;-77
2023/06/09 03:46:48;;;;;;;14.45;5.13;;;;;;;20.36;57.61;100907.94;5002764;28;20462;-76
2023/06/09 03:49:13;;;;;;;17.13;5.20;;;;;;;20.32;57.70;100911.34;5003773;28;20431;-76
2023/06/09 03:51:39;;;;;;;10.15;5.20;;;;;;;20.34;57.63;100912.75;5008202;28;20400;-77
2023/06/09 03:54:04;;;;;;;10.53;4.83;;;;;;;20.42;57.51;100915.13;4993396;28;20439;-77
2023/06/09 03:56:30;;;;;;;12.97;5.13;;;;;;;20.34;57.55;100912.75;5009365;28;20408;-77
2023/06/09 03:58:56;;;;;;;10.90;4.70;;;;;;;20.37;57.57;100917.69;5009239;28;20407;-77
2023/06/09 04:01:22;;;;;;;11.43;5.80;;;;;;;20.34;57.50;100903.84;5008793;28;20474;-77
2023/06/09 04:03:48;;;;;;;14.67;5.83;;;;;;;20.40;57.36;100911.00;5011315;28;20844;-77
2023/06/09 04:06:13;;;;;;;12.70;5.88;;;;;;;20.37;57.48;100909.59;5010889;28;20494;-77
2023/06/09 04:08:39;;;;;;;14.90;5.40;;;;;;;20.32;57.73;100922.13;5012723;28;20384;-76
2023/06/09 04:11:04;;;;;;;13.43;6.00;;;;;;;20.37;57.44;100923.06;5014265;28;20384;-77
2023/06/09 04:13:30;;;;;;;11.00;5.50;;;;;;;20.43;57.36;100915.94;5011165;28;20376;-77
2023/06/09 04:15:55;;;;;;;12.30;5.50;;;;;;;20.34;57.62;100920.81;4990970;28;20428;-77
2023/06/09 04:18:21;;;;;;;10.73;5.03;;;;;;;20.39;57.55;100926.34;5005280;28;22131;-77
2023/06/09 04:20:46;;;;;;;12.27;5.20;;;;;;;20.38;57.64;100924.72;4997166;28;20397;-77
2023/06/09 04:23:11;;;;;;;18.10;6.20;;;;;;;20.47;57.40;100929.75;5007900;28;20418;-76
2023/06/09 04:25:38;;;;;;;13.77;5.80;;;;;;;20.50;57.32;100924.72;5009312;28;20849;-78
2023/06/09 04:28:03;;;;;;;13.77;5.28;;;;;;;20.58;57.07;100934.34;5007370;28;20403;-78
2023/06/09 04:30:30;;;;;;;13.32;5.35;;;;;;;20.59;57.02;100923.34;5011103;28;20415;-77
2023/06/09 04:33:04;;;;;;;14.25;5.78;;;;;;;20.65;57.04;100928.88;5006979;28;20427;-79
2023/06/09 04:35:31;;;;;;;13.65;5.72;;;;;;;20.69;57.16;100940.84;5007379;28;20388;-76
2023/06/09 04:38:00;;;;;;;18.10;5.40;;;;;;;20.78;56.98;100932.19;5008038;28;20388;-78
2023/06/09 04:40:27;;;;;;;13.38;5.88;;;;;;;20.76;56.92;100936.16;5011418;28;20884;-77
2023/06/09 04:42:57;;;;;;;11.10;5.37;;;;;;;20.58;57.35;100934.34;5012748;28;20404;-78
2023/06/09 04:45:33;;;;;;;14.45;6.60;;;;;;;20.62;57.42;100933.69;5012254;28;20807;-77
2023/06/09 04:47:59;;;;;;;16.63;8.15;;;;;;;20.57;57.47;100933.53;5012969;28;20416;-79
2023/06/09 04:50:35;;;;;;;19.05;8.02;;;;;;;20.69;57.32;100946.22;5002992;28;20482;-79
2023/06/09 04:53:03;;;;;;;15.93;7.72;;;;;;;20.73;57.12;100936.66;5012459;28;20792;-79
2023/06/09 04:55:30;;;;;;;12.70;8.10;;;;;;;20.76;57.03;100938.84;4995019;28;20467;-78
2023/06/09 04:57:56;;;;;;;16.75;7.40;;;;;;;20.69;57.40;100941.69;5011944;28;20427;-77
2023/06/09 05:00:29;;;;;;;17.37;7.23;;;;;;;20.76;57.11;100934.31;5022214;28;20384;-78
2023/06/09 05:02:57;;;;;;;16.55;6.90;;;;;;;20.86;56.87;100941.81;5031151;28;21116;-76
2023/06/09 05:05:22;;;;;;;12.70;5.45;;;;;;;20.93;56.51;100945.22;5027947;28;20447;-78
2023/06/09 05:07:48;;;;;;;12.80;5.97;;;;;;;21.02;56.24;100950.25;5023477;28;20380;-78
2023/06/09 05:10:13;;;;;;;11.57;5.67;;;;;;;21.05;56.36;100939.84;4996603;28;20873;-79
2023/06/09 05:12:40;;;;;;;10.20;4.97;;;;;;;21.08;56.41;100952.81;5012159;28;20450;-79
2023/06/09 05:15:06;;;;;;;13.85;6.22;;;;;;;21.23;56.03;100947.00;5000778;28;20471;-79
2023/06/09 05:17:33;;;;;;;11.65;5.57;;;;;;;21.29;55.67;100948.72;5006639;28;20393;-78
2023/06/09 05:20:05;;;;;;;10.70;5.60;;;;;;;21.24;55.20;100953.19;5006458;28;20403;-78
2023/06/09 05:22:32;;;;;;;11.38;5.13;;;;;;;21.31;55.56;100956.59;5007660;28;20433;-78
2023/06/09 05:24:58;;;;;;;10.30;5.30;;;;;;;21.45;55.45;100958.00;5009585;28;20457;-78
2023/06/09 05:27:23;;;;;;;9.43;5.23;;;;;;;21.48;54.10;100943.22;5005973;28;20427;-77
2023/06/09 05:29:49;;;;;;;9.53;4.70;;;;;;;21.50;53.17;100941.94;5005883;28;20401;-78
2023/06/09 05:32:14;;;;;;;10.10;4.90;;;;;;;21.51;52.12;100943.56;5008858;28;20392;-76
2023/06/09 05:34:40;;;;;;;13.10;5.63;;;;;;;21.45;51.79;100935.59;5012138;28;20384;-78
2023/06/09 05:37:06;;;;;;;10.57;4.97;;;;;;;21.36;51.71;100927.03;5012600;28;20394;-76
2023/06/09 05:39:32;;;;;;;11.00;5.03;;;;;;;21.37;51.62;100934.91;5021018;28;20380;-78
2023/06/09 05:41:58;;;;;;;15.30;5.77;;;;;;;21.46;51.58;100943.44;5023611;28;20402;-78
2023/06/09 05:44:24;;;;;;;8.32;5.18;;;;;;;21.36;51.48;100929.75;5023686;28;20486;-78
2023/06/09 05:46:50;;;;;;;11.67;5.60;;;;;;;21.37;51.79;100934.91;5023666;28;20382;-78
2023/06/09 05:49:16;;;;;;;11.35;5.03;;;;;;;21.43;51.82;100943.06;5019753;28;20385;-77
2023/06/09 05:51:41;;;;;;;8.40;5.25;;;;;;;21.49;51.91;100943.00;5023276;28;20386;-78
2023/06/09 05:54:07;;;;;;;10.27;5.00;;;;;;;21.55;51.77;100949.31;5022982;28;20374;-76
2023/06/09 05:56:32;;;;;;;9.43;5.07;;;;;;;21.62;51.68;100957.28;5020590;28;20404;-77
2023/06/09 05:59:03;;;;;;;9.70;4.70;;;;;;;21.80;51.61;100954.41;5020070;28;20403;-77
2023/06/09 06:01:32;;;;;;;12.43;4.90;;;;;;;21.93;50.87;100959.56;5027891;28;20388;-77
2023/06/09 06:03:58;;;;;;;11.00;4.50;;;;;;;22.06;50.41;100961.16;5021765;28;20442;-78
2023/06/09 06:06:24;;;;;;;10.13;4.45;;;;;;;22.31;49.60;100957.34;5023311;28;20836;-77
2023/06/09 06:08:50;;;;;;;8.03;4.30;;;;;;;22.60;48.88;100957.25;5024719;28;20467;-78
2023/06/09 06:11:15;;;;;;;8.90;4.60;;;;;;;22.94;48.28;100952.72;5024602;28;20859;-78
2023/06/09 06:13:41;;;;;;;8.20;4.13;;;;;;;23.13;47.77;100950.59;5008146;28;20461;-77
2023/06/09 06:16:06;;;;;;;10.85;4.50;;;;;;;23.39;47.42;100946.38;5026667;28;20386;-78
2023/06/09 06:18:32;;;;;;;7.30;4.53;;;;;;;23.66;46.91;100945.63;5024108;28;20717;-76
2023/06/09 06:20:57;;;;;;;7.73;4.60;;;;;;;23.69;46.95;100945.09;5025398;28;20387;-77
2023/06/09 06:23:24;;;;;;;10.23;4.77;;;;;;;23.54;46.81;100944.94;5027885;28;20402;-76
2023/06/09 06:25:50;;;;;;;9.50;4.85;;;;;;;23.71;46.96;100944.84;5035315;28;20386;-79
2023/06/09 06:28:16;;;;;;;11.15;4.90;;;;;;;23.80;46.94;100941.47;5037483;28;20452;-78
2023/06/09 06:30:42;;;;;;;9.85;4.47;;;;;;;23.91;46.47;100941.59;5037824;28;20383;-77
2023/06/09 06:33:07;;;;;;;9.37;4.70;;;;;;;24.02;46.41;100935.22;5018738;28;20387;-76
2023/06/09 06:35:33;;;;;;;9.73;4.47;;;;;;;24.03;46.11;100934.97;5037283;28;20768;-78
2023/06/09 06:37:59;;;;;;;8.30;4.80;;;;;;;24.24;45.66;100937.91;5038243;28;20389;-79
2023/06/09 06:40:26;;;;;;;11.25;5.30;;;;;;;24.29;45.56;100937.13;5036764;28;20479;-78
2023/06/09 06:42:52;;;;;;;12.07;4.97;;;;;;;24.49;45.73;100939.19;5019279;28;20448;-77
2023/06/09 06:45:18;;;;;;;9.73;5.30;;;;;;;24.51;45.50;100945.19;5036665;28;20386;-77
2023/06/09 06:47:45;;;;;;;10.00;5.10;;;;;;;24.51;45.41;100945.19;5036478;28;20374;-77
2023/06/09 06:50:13;;;;;;;11.02;4.55;;;;;;;24.47;45.54;100935.94;5030856;28;20389;-76
2023/06/09 06:52:39;;;;;;;14.02;4.70;;;;;;;24.78;44.70;100939.75;5009482;28;20486;-78
2023/06/09 06:55:07;;;;;;;12.27;4.60;;;;;;;24.85;44.27;100945.78;5004531;28;20551;-78
2023/06/09 06:57:34;;;;;;;8.37;4.40;;;;;;;24.89;43.60;100944.16;5003855;28;20423;-78
2023/06/09 07:00:00;;;;;;;7.00;4.68;;;;;;;24.92;43.40;100935.53;5006536;28;20415;-80
2023/06/09 07:02:25;;;;;;;9.18;4.63;;;;;;;24.98;43.51;100945.31;5004200;28;20428;-77
2023/06/09 07:04:51;;;;;;;8.23;4.40;;;;;;;25.03;43.47;100936.41;5004030;28;20414;-78
2023/06/09 07:07:16;;;;;;;9.07;4.27;;;;;;;25.12;43.21;100942.97;5004949;28;20384;-77
2023/06/09 07:09:43;;;;;;;7.93;4.95;;;;;;;25.09;43.02;100937.25;5003263;28;20870;-78
2023/06/09 07:12:09;;;;;;;7.73;4.60;;;;;;;25.11;43.04;100937.81;5002092;28;20479;-77
2023/06/09 07:14:35;;;;;;;8.63;5.57;;;;;;;25.25;43.02;100947.16;5004534;28;20400;-78
2023/06/09 07:17:01;;;;;;;8.82;5.63;;;;;;;25.37;42.91;100947.75;4987922;28;20407;-77
2023/06/09 07:19:27;;;;;;;8.48;5.18;;;;;;;25.52;42.72;100947.00;5007403;28;20400;-76
2023/06/09 07:21:52;;;;;;;10.40;5.43;;;;;;;25.48;42.94;100943.22;5008009;28;20416;-77
2023/06/09 07:24:18;;;;;;;9.70;4.80;;;;;;;25.57;43.28;100940.81;5014339;28;20427;-78
2023/06/09 07:26:43;;;;;;;10.43;4.88;;;;;;;25.76;43.11;100952.00;5014087;28;20463;-77
2023/06/09 07:29:09;;;;;;;8.87;4.77;;;;;;;25.78;42.95;100944.41;5015278;28;20457;-77
2023/06/09 07:31:34;;;;;;;8.87;4.83;;;;;;;25.92;43.15;100950.97;4996211;28;20454;-76
2023/06/09 07:34:00;;;;;;;11.70;5.13;;;;;;;25.86;42.84;100954.75;4998019;28;20388;-77
2023/06/09 07:36:29;;;;;;;8.90;4.90;;;;;;;25.97;42.75;100955.63;5028207;28;20389;-78
2023/06/09 07:38:55;;;;;;;8.68;4.75;;;;;;;25.97;42.81;100954.84;5034598;28;20863;-78
2023/06/09 07:41:20;;;;;;;9.77;4.70;;;;;;;25.87;42.89;100961.00;5037042;28;20413;-78
2023/06/09 07:43:46;;;;;;;7.80;4.28;;;;;;;25.86;42.06;100952.03;5035532;28;20417;-78
2023/06/09 07:46:13;;;;;;;7.43;4.60;;;;;;;25.75;42.00;100950.38;5035148;28;20402;-76
2023/06/09 07:48:42;;;;;;;11.70;4.57;;;;;;;25.71;41.67;100947.38;5025086;28;20473;-76
2023/06/09 07:51:08;;;;;;;9.00;4.65;;;;;;;25.84;41.33;100954.22;5014454;28;20859;-77
2023/06/09 07:53:35;;;;;;;10.45;4.20;;;;;;;25.87;41.21;100950.13;5014635;28;20458;-76
2023/06/09 07:56:01;;;;;;;7.13;4.53;;;;;;;25.97;40.41;100960.25;5014812;28;20412;-76
2023/06/09 07:58:26;;;;;;;9.30;4.63;;;;;;;25.92;40.36;100959.09;5013704;28;20384;-76
2023/06/09 08:00:52;;;;;;;9.23;4.40;;;;;;;25.87;40.82;100955.56;5015562;28;20392;-76
2023/06/09 08:03:17;;;;;;;7.30;4.30;;;;;;;25.93;40.99;100959.97;4998118;28;20410;-77
2023/06/09 08:05:43;;;;;;;7.20;4.40;;;;;;;26.16;40.76;100957.84;5013367;28;20388;-78
2023/06/09 08:08:08;;;;;;;7.63;4.00;;;;;;;26.16;40.07;100942.34;5016738;28;20368;-79
2023/06/09 08:10:34;;;;;;;8.03;4.17;;;;;;;26.13;40.05;100938.28;5020381;28;20388;-81
2023/06/09 08:12:59;;;;;;;10.80;4.50;;;;;;;26.22;40.30;100941.28;5015478;28;20461;-77
2023/06/09 08:15:25;;;;;;;7.10;4.63;;;;;;;26.23;40.54;100940.19;5013251;28;20395;-80
2023/06/09 08:17:50;;;;;;;8.55;5.43;;;;;;;26.13;40.60;100940.19;5013500;28;20861;-78
2023/06/09 08:20:16;;;;;;;9.70;5.33;;;;;;;26.15;40.75;100942.66;5014361;28;20388;-77
2023/06/09 08:22:41;;;;;;;8.67;4.70;;;;;;;26.22;40.48;100937.78;5014406;28;20411;-76
2023/06/09 08:25:07;;;;;;;7.20;4.40;;;;;;;26.11;40.01;100939.66;5014325;28;20380;-77
2023/06/09 08:27:33;;;;;;;7.55;5.00;;;;;;;26.19;39.89;100941.00;5014036;28;20876;-77
2023/06/09 08:29:58;;;;;;;11.53;4.63;;;;;;;26.29;40.53;100941.03;5013314;28;20462;-77
2023/06/09 08:32:23;;;;;;;7.77;4.87;;;;;;;26.51;40.18;100938.06;5013717;28;20864;-77
2023/06/09 08:34:49;;;;;;;6.97;4.55;;;;;;;26.65;39.74;100933.75;5015064;28;20383;-77
2023/06/09 08:37:15;;;;;;;7.20;4.70;;;;;;;26.73;39.90;100937.81;5028658;28;20407;-78
2023/06/09 08:39:40;;;;;;;8.20;5.00;;;;;;;26.79;39.36;100933.19;5012860;28;20749;-76
2023/06/09 08:42:22;;;;;;;5.23;4.00;;;;;;;26.92;38.17;100931.81;5012566;28;20495;-76
2023/06/09 08:44:50;;;;;;;7.82;4.25;;;;;;;27.15;37.99;100927.69;5013317;28;20456;-77
2023/06/09 08:47:20;;;;;;;6.35;4.22;;;;;;;27.23;38.04;100924.41;5013474;28;20412;-77
2023/06/09 08:49:48;;;;;;;7.38;4.53;;;;;;;27.35;38.40;100930.38;5016120;28;20416;-79
2023/06/09 08:52:15;;;;;;;6.95;4.28;;;;;;;27.33;38.29;100924.38;5017949;28;20458;-80
2023/06/09 08:54:41;;;;;;;7.07;4.60;;;;;;;27.32;38.34;100921.97;5017129;28;20466;-78
2023/06/09 08:57:09;;;;;;;6.57;4.68;;;;;;;27.35;38.29;100913.22;5020447;28;20411;-78
2023/06/09 08:59:36;;;;;;;11.65;5.88;;;;;;;27.51;38.04;100909.34;5015131;28;20391;-79
2023/06/09 09:02:02;;;;;;;9.93;4.93;;;;;;;27.50;37.79;100907.72;5013562;28;20408;-78
2023/06/09 09:04:27;;;;;;;7.75;3.85;;;;;;;27.60;37.84;100915.03;5013148;28;20471;-76
2023/06/09 09:06:55;;;;;;;10.33;5.13;;;;;;;27.61;37.17;100903.84;5014284;28;20376;-77
2023/06/09 09:09:20;;;;;;;5.70;3.80;;;;;;;27.55;36.96;100905.00;5014465;28;20372;-78
2023/06/09 09:11:50;;;;;;;7.50;4.07;;;;;;;27.61;36.86;100908.50;5011249;28;20462;-77
2023/06/09 09:14:16;;;;;;;9.07;4.10;;;;;;;27.65;36.84;100907.63;5008449;28;20928;-77
2023/06/09 09:16:41;;;;;;;7.27;3.63;;;;;;;27.69;36.67;100905.16;5004425;28;20384;-78
2023/06/09 09:19:07;;;;;;;7.57;3.58;;;;;;;27.76;36.24;100897.50;5012724;28;20850;-79
2023/06/09 09:21:37;;;;;;;7.57;3.70;;;;;;;27.84;36.03;100902.38;5012884;28;20388;-79
2023/06/09 09:24:07;;;;;;;7.90;3.60;;;;;;;27.97;36.36;100903.69;5012558;28;20938;-78
2023/06/09 09:26:33;;;;;;;7.85;3.67;;;;;;;28.08;36.17;100900.91;5013770;28;20837;-79
2023/06/09 09:29:06;;;;;;;8.25;3.58;;;;;;;28.17;35.59;100902.72;5014973;28;20876;-78
2023/06/09 09:31:39;;;;;;;5.82;3.38;;;;;;;28.31;35.39;100911.09;5013252;28;20399;-76
2023/06/09 09:34:10;;;;;;;8.00;3.75;;;;;;;28.40;35.18;100908.56;5012878;28;20380;-77
2023/06/09 09:36:41;;;;;;;6.35;3.08;;;;;;;28.42;35.52;100901.72;5011451;28;20388;-77
2023/06/09 09:39:06;;;;;;;6.40;3.60;;;;;;;28.42;35.53;100903.63;5013641;28;20380;-78
2023/06/09 09:41:32;;;;;;;8.30;3.40;;;;;;;28.42;35.68;100898.19;5012920;28;20394;-80
2023/06/09 09:43:57;;;;;;;8.17;3.43;;;;;;;28.34;35.68;100894.16;5013566;28;20404;-79
2023/06/09 09:46:23;;;;;;;7.25;3.70;;;;;;;28.45;35.51;100894.06;5030558;28;20443;-78
2023/06/09 09:48:50;;;;;;;14.18;9.45;;;;;;;28.39;35.62;100883.19;5013896;28;20414;-81
2023/06/09 09:51:18;;;;;;;16.92;6.53;;;;;;;28.56;35.91;100901.91;5012937;28;20388;-77
2023/06/09 09:53:45;;;;;;;8.32;3.90;;;;;;;28.72;35.63;100888.13;5011555;28;20380;-78
2023/06/09 09:56:14;;;;;;;7.00;3.42;;;;;;;28.79;35.28;100885.84;5011498;28;20923;-77
2023/06/09 09:58:42;;;;;;;8.57;3.87;;;;;;;28.72;35.22;100886.22;5010195;28;20396;-77
2023/06/09 10:01:10;;;;;;;6.38;3.42;;;;;;;28.80;35.47;100887.50;5012060;28;20384;-77
2023/06/09 10:03:38;;;;;;;8.38;3.70;;;;;;;28.97;34.98;100898.78;5012143;28;20456;-76
2023/06/09 10:06:09;;;;;;;6.93;3.50;;;;;;;28.96;34.96;100891.69;5012321;28;20860;-76
2023/06/09 10:08:35;;;;;;;6.55;3.30;;;;;;;29.04;34.89;100882.03;5012793;28;20384;-77
2023/06/09 10:11:02;;;;;;;7.97;3.80;;;;;;;29.08;34.53;100887.72;5012677;28;20417;-79
2023/06/09 10:13:28;;;;;;;7.13;3.38;;;;;;;29.05;34.86;100880.97;5012962;28;20432;-76
2023/06/09 10:15:55;;;;;;;6.50;3.40;;;;;;;29.29;35.18;100878.22;5012080;28;20882;-77
2023/06/09 10:18:22;;;;;;;5.63;3.42;;;;;;;29.30;34.96;100874.41;5014026;28;20384;-78
2023/06/09 10:20:48;;;;;;;5.90;3.10;;;;;;;29.43;35.34;100877.53;5013156;28;20383;-78
2023/06/09 10:23:15;;;;;;;8.02;3.60;;;;;;;29.30;34.73;100868.94;5013380;28;20781;-77
2023/06/09 10:25:41;;;;;;;5.88;3.33;;;;;;;29.12;34.71;100869.69;4996737;28;20392;-77
2023/06/09 10:28:09;;;;;;;6.00;3.30;;;;;;;29.20;35.00;100863.59;5013612;28;20398;-77
2023/06/09 10:30:35;;;;;;;8.80;3.30;;;;;;;29.09;34.74;100868.34;5012511;28;20463;-76
2023/06/09 10:33:18;;;;;;;9.10;3.30;;;;;;;29.04;34.79;100862.13;4999563;28;20910;-76
2023/06/09 10:35:47;;;;;;;6.93;3.53;;;;;;;29.14;34.83;100865.59;5017367;28;20532;-78
2023/06/09 10:38:31;;;;;;;10.18;3.78;;;;;;;29.19;35.05;100864.72;5014733;28;20412;-77
2023/06/09 10:41:05;;;;;;;6.45;3.80;;;;;;;29.30;34.79;100858.03;5013939;28;20487;-76
2023/06/09 10:43:45;;;;;;;6.57;3.50;;;;;;;29.27;35.10;100866.00;5008563;28;20490;-78
2023/06/09 10:46:12;;;;;;;7.20;3.15;;;;;;;29.17;34.88;100858.72;5003975;28;20565;-79
2023/06/09 10:48:50;;;;;;;8.07;3.63;;;;;;;29.27;35.26;100852.34;5003769;28;20411;-77
2023/06/09 10:51:26;;;;;;;6.82;3.63;;;;;;;29.50;35.36;100851.47;5007141;28;20434;-79
2023/06/09 10:54:12;;;;;;;9.05;3.80;;;;;;;29.69;34.61;100839.75;5013760;28;20466;-77
2023/06/09 10:56:40;;;;;;;6.70;3.58;;;;;;;29.68;34.73;100840.88;4993902;28;20447;-78
2023/06/09 10:59:26;;;;;;;6.60;3.53;;;;;;;29.77;34.74;100838.31;5017182;28;20388;-77
2023/06/09 11:02:01;;;;;;;7.00;3.65;;;;;;;29.85;35.12;100841.16;5015056;28;20385;-77
2023/06/09 11:04:43;;;;;;;6.40;3.53;;;;;;;29.90;34.50;100837.53;5002582;28;20469;-76
2023/06/09 11:07:24;;;;;;;6.22;3.67;;;;;;;29.97;34.04;100827.06;5013611;28;20376;-77
2023/06/09 11:09:49;;;;;;;7.70;3.60;;;;;;;29.95;34.04;100829.28;5014067;28;20388;-76
2023/06/09 11:12:28;;;;;;;5.95;3.25;;;;;;;29.98;33.84;100820.50;5011166;28;20448;-76
2023/06/09 11:14:58;;;;;;;7.47;3.30;;;;;;;30.02;33.43;100810.56;5012428;28;20384;-76
2023/06/09 11:17:34;;;;;;;4.95;3.22;;;;;;;29.96;33.43;100811.75;5015677;28;20376;-77
2023/06/09 11:20:38;;;;;;;5.93;3.20;;;;;;;29.86;33.52;100801.00;5017187;28;20872;-79
2023/06/09 11:23:03;;;;;;;7.90;3.30;;;;;;;30.02;32.66;100798.84;5013467;28;20505;-78
2023/06/09 11:25:29;;;;;;;6.00;3.22;;;;;;;29.93;32.66;100801.44;4993993;28;20386;-76